sensor_id;sensor_type;location;lat;lon;timestamp;temperature;humidity
4828;DHT22;2428;48.732;9.148;2022-07-29T00:00:36;19.60;99.90
4828;DHT22;2428;48.732;9.148;2022-07-29T00:03:02;19.60;99.90
4828;DHT22;2428;48.732;9.148;2022-07-29T00:05:28;19.60;99.90
4828;DHT22;2428;48.732;9.148;2022-07-29T00:07:54;19.60;99.90
4828;DHT22;2428;48.732;9.148;2022-07-29T00:10:20;19.60;99.90
4828;DHT22;2428;48.732;9.148;2022-07-29T00:12:46;19.50;99.90
4828;DHT22;2428;48.732;9.148;2022-07-29T00:15:11;19.50;99.90
4828;DHT22;2428;48.732;9.148;2022-07-29T00:17:37;19.50;99.90
4828;DHT22;2428;48.732;9.148;2022-07-29T00:20:03;19.50;99.90
4828;DHT22;2428;48.732;9.148;2022-07-29T00:22:29;19.50;99.90
4828;DHT22;2428;48.732;9.148;2022-07-29T00:24:54;19.40;99.90
4828;DHT22;2428;48.732;9.148;2022-07-29T00:27:20;19.40;99.90
4828;DHT22;2428;48.732;9.148;2022-07-29T00:29:46;19.40;99.90
4828;DHT22;2428;48.732;9.148;2022-07-29T00:32:12;19.30;99.90
4828;DHT22;2428;48.732;9.148;2022-07-29T00:34:37;19.40;99.90
4828;DHT22;2428;48.732;9.148;2022-07-29T00:37:22;19.20;99.90
4828;DHT22;2428;48.732;9.148;2022-07-29T00:39:47;19.20;99.90
4828;DHT22;2428;48.732;9.148;2022-07-29T00:42:13;19.20;99.90
4828;DHT22;2428;48.732;9.148;2022-07-29T00:44:40;19.20;99.90
4828;DHT22;2428;48.732;9.148;2022-07-29T00:47:07;19.20;99.90
4828;DHT22;2428;48.732;9.148;2022-07-29T00:49:34;19.20;99.90
4828;DHT22;2428;48.732;9.148;2022-07-29T00:52:06;19.20;99.90
4828;DHT22;2428;48.732;9.148;2022-07-29T00:54:33;19.20;99.90
4828;DHT22;2428;48.732;9.148;2022-07-29T00:56:59;19.10;99.90
4828;DHT22;2428;48.732;9.148;2022-07-29T00:59:26;19.10;99.90
4828;DHT22;2428;48.732;9.148;2022-07-29T01:01:53;19.10;99.90
4828;DHT22;2428;48.732;9.148;2022-07-29T01:04:20;19.10;99.90
4828;DHT22;2428;48.732;9.148;2022-07-29T01:06:47;19.10;99.90
4828;DHT22;2428;48.732;9.148;2022-07-29T01:09:13;19.10;99.90
4828;DHT22;2428;48.732;9.148;2022-07-29T01:11:39;19.10;99.90
4828;DHT22;2428;48.732;9.148;2022-07-29T01:14:06;19.10;99.90
4828;DHT22;2428;48.732;9.148;2022-07-29T01:25:45;19.00;99.90
4828;DHT22;2428;48.732;9.148;2022-07-29T01:30:58;18.90;99.90
4828;DHT22;2428;48.732;9.148;2022-07-29T01:33:26;18.90;99.90
4828;DHT22;2428;48.732;9.148;2022-07-29T01:36:18;19.00;99.90
4828;DHT22;2428;48.732;9.148;2022-07-29T01:38:53;18.90;99.90
4828;DHT22;2428;48.732;9.148;2022-07-29T01:41:20;18.90;99.90
4828;DHT22;2428;48.732;9.148;2022-07-29T01:43:53;18.90;99.90
4828;DHT22;2428;48.732;9.148;2022-07-29T01:46:24;18.90;99.90
4828;DHT22;2428;48.732;9.148;2022-07-29T01:48:57;18.90;99.90
4828;DHT22;2428;48.732;9.148;2022-07-29T01:51:38;18.80;99.90
4828;DHT22;2428;48.732;9.148;2022-07-29T01:54:12;18.80;99.90
4828;DHT22;2428;48.732;9.148;2022-07-29T01:56:38;18.80;99.90
4828;DHT22;2428;48.732;9.148;2022-07-29T01:59:06;18.70;99.90
4828;DHT22;2428;48.732;9.148;2022-07-29T02:01:33;18.70;99.90
4828;DHT22;2428;48.732;9.148;2022-07-29T02:04:03;18.70;99.90
4828;DHT22;2428;48.732;9.148;2022-07-29T02:06:32;18.70;99.90
4828;DHT22;2428;48.732;9.148;2022-07-29T02:08:59;18.70;99.90
4828;DHT22;2428;48.732;9.148;2022-07-29T02:11:25;18.70;99.90
4828;DHT22;2428;48.732;9.148;2022-07-29T02:13:53;18.70;99.90
4828;DHT22;2428;48.732;9.148;2022-07-29T02:16:21;18.70;99.90
4828;DHT22;2428;48.732;9.148;2022-07-29T02:18:49;18.60;99.90
4828;DHT22;2428;48.732;9.148;2022-07-29T02:21:21;18.60;99.90
4828;DHT22;2428;48.732;9.148;2022-07-29T02:23:48;18.60;99.90
4828;DHT22;2428;48.732;9.148;2022-07-29T02:26:17;18.60;99.90
4828;DHT22;2428;48.732;9.148;2022-07-29T02:28:43;18.60;99.90
4828;DHT22;2428;48.732;9.148;2022-07-29T02:31:11;18.60;99.90
4828;DHT22;2428;48.732;9.148;2022-07-29T02:33:39;18.60;99.90
4828;DHT22;2428;48.732;9.148;2022-07-29T02:36:06;18.60;99.90
4828;DHT22;2428;48.732;9.148;2022-07-29T02:38:32;18.60;99.90
4828;DHT22;2428;48.732;9.148;2022-07-29T02:41:22;18.60;99.90
4828;DHT22;2428;48.732;9.148;2022-07-29T02:43:54;18.50;99.90
4828;DHT22;2428;48.732;9.148;2022-07-29T02:46:29;18.50;99.90
4828;DHT22;2428;48.732;9.148;2022-07-29T02:50:04;18.50;99.90
4828;DHT22;2428;48.732;9.148;2022-07-29T02:52:03;18.50;99.90
4828;DHT22;2428;48.732;9.148;2022-07-29T02:54:44;18.50;99.90
4828;DHT22;2428;48.732;9.148;2022-07-29T02:57:18;18.50;99.90
4828;DHT22;2428;48.732;9.148;2022-07-29T02:59:45;18.40;99.90
4828;DHT22;2428;48.732;9.148;2022-07-29T03:02:14;18.40;99.90
4828;DHT22;2428;48.732;9.148;2022-07-29T03:04:41;18.50;99.90
4828;DHT22;2428;48.732;9.148;2022-07-29T03:07:08;18.40;99.90
4828;DHT22;2428;48.732;9.148;2022-07-29T03:09:36;18.30;99.90
4828;DHT22;2428;48.732;9.148;2022-07-29T03:12:04;18.30;99.90
4828;DHT22;2428;48.732;9.148;2022-07-29T03:14:31;18.30;99.90
4828;DHT22;2428;48.732;9.148;2022-07-29T03:16:57;18.30;99.90
4828;DHT22;2428;48.732;9.148;2022-07-29T03:19:23;18.20;99.90
4828;DHT22;2428;48.732;9.148;2022-07-29T03:21:49;18.20;99.90
4828;DHT22;2428;48.732;9.148;2022-07-29T03:24:25;18.30;99.90
4828;DHT22;2428;48.732;9.148;2022-07-29T03:26:51;18.30;99.90
4828;DHT22;2428;48.732;9.148;2022-07-29T03:29:17;18.20;99.90
4828;DHT22;2428;48.732;9.148;2022-07-29T03:31:42;18.20;99.90
4828;DHT22;2428;48.732;9.148;2022-07-29T03:34:08;18.20;99.90
4828;DHT22;2428;48.732;9.148;2022-07-29T03:36:33;18.20;99.90
4828;DHT22;2428;48.732;9.148;2022-07-29T03:39:00;18.20;99.90
4828;DHT22;2428;48.732;9.148;2022-07-29T03:41:26;18.20;99.90
4828;DHT22;2428;48.732;9.148;2022-07-29T03:43:53;18.20;99.90
4828;DHT22;2428;48.732;9.148;2022-07-29T03:46:21;18.20;99.90
4828;DHT22;2428;48.732;9.148;2022-07-29T03:48:50;18.20;99.90
4828;DHT22;2428;48.732;9.148;2022-07-29T03:51:18;18.10;99.90
4828;DHT22;2428;48.732;9.148;2022-07-29T03:53:44;18.10;99.90
4828;DHT22;2428;48.732;9.148;2022-07-29T03:56:10;18.10;99.90
4828;DHT22;2428;48.732;9.148;2022-07-29T03:58:41;18.00;99.90
4828;DHT22;2428;48.732;9.148;2022-07-29T04:01:07;18.10;99.90
4828;DHT22;2428;48.732;9.148;2022-07-29T04:03:34;18.10;99.90
4828;DHT22;2428;48.732;9.148;2022-07-29T04:06:02;18.10;99.90
4828;DHT22;2428;48.732;9.148;2022-07-29T04:08:28;18.10;99.90
4828;DHT22;2428;48.732;9.148;2022-07-29T04:10:53;18.10;99.90
4828;DHT22;2428;48.732;9.148;2022-07-29T04:13:20;18.10;99.90
4828;DHT22;2428;48.732;9.148;2022-07-29T04:15:45;18.10;99.90
4828;DHT22;2428;48.732;9.148;2022-07-29T04:18:11;18.10;99.90
4828;DHT22;2428;48.732;9.148;2022-07-29T04:20:37;18.20;99.90
4828;DHT22;2428;48.732;9.148;2022-07-29T04:23:02;18.10;99.90
4828;DHT22;2428;48.732;9.148;2022-07-29T04:25:28;18.10;99.90
4828;DHT22;2428;48.732;9.148;2022-07-29T04:27:53;18.10;99.90
4828;DHT22;2428;48.732;9.148;2022-07-29T04:30:25;18.10;99.90
4828;DHT22;2428;48.732;9.148;2022-07-29T04:32:51;18.10;99.90
4828;DHT22;2428;48.732;9.148;2022-07-29T04:35:16;18.10;99.90
4828;DHT22;2428;48.732;9.148;2022-07-29T04:37:42;18.10;99.90
4828;DHT22;2428;48.732;9.148;2022-07-29T04:40:08;18.20;99.90
4828;DHT22;2428;48.732;9.148;2022-07-29T04:42:33;18.20;99.90
4828;DHT22;2428;48.732;9.148;2022-07-29T04:44:59;18.20;99.90
4828;DHT22;2428;48.732;9.148;2022-07-29T04:47:25;18.20;99.90
4828;DHT22;2428;48.732;9.148;2022-07-29T04:49:50;18.30;99.90
4828;DHT22;2428;48.732;9.148;2022-07-29T04:52:16;18.30;99.90
4828;DHT22;2428;48.732;9.148;2022-07-29T04:54:41;18.30;99.90
4828;DHT22;2428;48.732;9.148;2022-07-29T04:57:07;18.30;99.90
4828;DHT22;2428;48.732;9.148;2022-07-29T04:59:32;18.30;99.90
4828;DHT22;2428;48.732;9.148;2022-07-29T05:01:58;18.40;99.90
4828;DHT22;2428;48.732;9.148;2022-07-29T05:04:24;18.30;99.90
4828;DHT22;2428;48.732;9.148;2022-07-29T05:06:49;18.40;99.90
4828;DHT22;2428;48.732;9.148;2022-07-29T05:09:15;18.40;99.90
4828;DHT22;2428;48.732;9.148;2022-07-29T05:11:40;18.40;99.90
4828;DHT22;2428;48.732;9.148;2022-07-29T05:14:06;18.50;99.90
4828;DHT22;2428;48.732;9.148;2022-07-29T05:16:32;18.50;99.90
4828;DHT22;2428;48.732;9.148;2022-07-29T05:18:57;18.50;99.90
4828;DHT22;2428;48.732;9.148;2022-07-29T05:21:23;18.60;99.90
4828;DHT22;2428;48.732;9.148;2022-07-29T05:23:48;18.70;99.90
4828;DHT22;2428;48.732;9.148;2022-07-29T05:26:14;18.70;99.90
4828;DHT22;2428;48.732;9.148;2022-07-29T05:28:39;18.80;99.90
4828;DHT22;2428;48.732;9.148;2022-07-29T05:31:05;18.80;99.90
4828;DHT22;2428;48.732;9.148;2022-07-29T05:33:30;18.90;99.90
4828;DHT22;2428;48.732;9.148;2022-07-29T05:35:57;19.00;99.90
4828;DHT22;2428;48.732;9.148;2022-07-29T05:38:23;19.00;99.90
4828;DHT22;2428;48.732;9.148;2022-07-29T05:40:48;19.10;99.90
4828;DHT22;2428;48.732;9.148;2022-07-29T05:43:14;19.20;99.90
4828;DHT22;2428;48.732;9.148;2022-07-29T05:45:39;19.20;99.90
4828;DHT22;2428;48.732;9.148;2022-07-29T05:48:05;19.30;99.90
4828;DHT22;2428;48.732;9.148;2022-07-29T05:50:30;19.30;99.90
4828;DHT22;2428;48.732;9.148;2022-07-29T05:52:56;19.30;99.90
4828;DHT22;2428;48.732;9.148;2022-07-29T05:55:22;19.40;99.90
4828;DHT22;2428;48.732;9.148;2022-07-29T05:57:47;19.40;99.90
4828;DHT22;2428;48.732;9.148;2022-07-29T06:00:13;19.40;99.90
4828;DHT22;2428;48.732;9.148;2022-07-29T06:02:39;19.50;99.90
4828;DHT22;2428;48.732;9.148;2022-07-29T06:05:04;19.50;99.90
4828;DHT22;2428;48.732;9.148;2022-07-29T06:07:30;19.60;99.90
4828;DHT22;2428;48.732;9.148;2022-07-29T06:09:57;19.60;99.90
4828;DHT22;2428;48.732;9.148;2022-07-29T06:12:23;19.60;99.90
4828;DHT22;2428;48.732;9.148;2022-07-29T06:14:48;19.60;99.90
4828;DHT22;2428;48.732;9.148;2022-07-29T06:17:16;19.60;99.90
4828;DHT22;2428;48.732;9.148;2022-07-29T06:19:41;19.70;99.90
4828;DHT22;2428;48.732;9.148;2022-07-29T06:22:07;19.80;99.90
4828;DHT22;2428;48.732;9.148;2022-07-29T06:24:32;19.80;99.90
4828;DHT22;2428;48.732;9.148;2022-07-29T06:26:58;19.90;99.90
4828;DHT22;2428;48.732;9.148;2022-07-29T06:29:24;19.90;99.90
4828;DHT22;2428;48.732;9.148;2022-07-29T06:31:50;20.00;99.90
4828;DHT22;2428;48.732;9.148;2022-07-29T06:34:16;20.10;99.90
4828;DHT22;2428;48.732;9.148;2022-07-29T06:36:41;20.20;99.90
4828;DHT22;2428;48.732;9.148;2022-07-29T06:39:08;20.40;99.90
4828;DHT22;2428;48.732;9.148;2022-07-29T06:41:34;20.50;99.90
4828;DHT22;2428;48.732;9.148;2022-07-29T06:43:59;20.60;99.90
4828;DHT22;2428;48.732;9.148;2022-07-29T06:46:25;20.60;99.90
4828;DHT22;2428;48.732;9.148;2022-07-29T06:48:51;20.60;99.90
4828;DHT22;2428;48.732;9.148;2022-07-29T06:51:18;20.70;99.90
4828;DHT22;2428;48.732;9.148;2022-07-29T06:53:43;20.70;99.90
4828;DHT22;2428;48.732;9.148;2022-07-29T06:56:09;20.70;99.90
4828;DHT22;2428;48.732;9.148;2022-07-29T06:58:35;20.60;99.90
4828;DHT22;2428;48.732;9.148;2022-07-29T07:01:03;20.60;99.90
4828;DHT22;2428;48.732;9.148;2022-07-29T07:03:30;20.60;99.90
4828;DHT22;2428;48.732;9.148;2022-07-29T07:05:55;20.60;99.90
4828;DHT22;2428;48.732;9.148;2022-07-29T07:08:21;20.60;99.90
4828;DHT22;2428;48.732;9.148;2022-07-29T07:10:48;20.60;99.90
4828;DHT22;2428;48.732;9.148;2022-07-29T07:13:13;20.60;99.90
4828;DHT22;2428;48.732;9.148;2022-07-29T07:15:40;20.70;99.90
4828;DHT22;2428;48.732;9.148;2022-07-29T07:18:06;20.90;99.90
4828;DHT22;2428;48.732;9.148;2022-07-29T07:20:32;21.00;99.90
4828;DHT22;2428;48.732;9.148;2022-07-29T07:22:58;21.10;99.90
4828;DHT22;2428;48.732;9.148;2022-07-29T07:25:24;21.20;99.90
4828;DHT22;2428;48.732;9.148;2022-07-29T07:27:49;21.30;99.90
4828;DHT22;2428;48.732;9.148;2022-07-29T07:30:15;21.30;99.90
4828;DHT22;2428;48.732;9.148;2022-07-29T07:32:41;21.30;99.90
4828;DHT22;2428;48.732;9.148;2022-07-29T07:35:07;21.30;99.90
4828;DHT22;2428;48.732;9.148;2022-07-29T07:37:34;21.40;99.90
4828;DHT22;2428;48.732;9.148;2022-07-29T07:40:00;21.30;99.90
4828;DHT22;2428;48.732;9.148;2022-07-29T07:42:26;21.30;99.90
4828;DHT22;2428;48.732;9.148;2022-07-29T07:44:51;21.30;99.90
4828;DHT22;2428;48.732;9.148;2022-07-29T07:47:18;21.40;99.90
4828;DHT22;2428;48.732;9.148;2022-07-29T07:49:47;21.50;99.90
4828;DHT22;2428;48.732;9.148;2022-07-29T07:52:14;21.60;99.90
4828;DHT22;2428;48.732;9.148;2022-07-29T07:54:40;21.70;99.90
4828;DHT22;2428;48.732;9.148;2022-07-29T07:57:06;21.70;99.90
4828;DHT22;2428;48.732;9.148;2022-07-29T07:59:32;21.70;99.90
4828;DHT22;2428;48.732;9.148;2022-07-29T08:01:57;21.80;99.90
4828;DHT22;2428;48.732;9.148;2022-07-29T08:04:23;21.80;99.90
4828;DHT22;2428;48.732;9.148;2022-07-29T08:06:50;21.80;99.90
4828;DHT22;2428;48.732;9.148;2022-07-29T08:09:16;21.80;99.90
4828;DHT22;2428;48.732;9.148;2022-07-29T08:11:41;21.90;99.90
4828;DHT22;2428;48.732;9.148;2022-07-29T08:14:07;22.00;99.90
4828;DHT22;2428;48.732;9.148;2022-07-29T08:16:32;22.10;99.90
4828;DHT22;2428;48.732;9.148;2022-07-29T08:18:58;22.10;99.90
4828;DHT22;2428;48.732;9.148;2022-07-29T08:21:24;22.20;99.90
4828;DHT22;2428;48.732;9.148;2022-07-29T08:23:50;22.40;99.90
4828;DHT22;2428;48.732;9.148;2022-07-29T08:26:19;22.50;99.90
4828;DHT22;2428;48.732;9.148;2022-07-29T08:28:46;22.50;99.90
4828;DHT22;2428;48.732;9.148;2022-07-29T08:31:14;22.60;99.90
4828;DHT22;2428;48.732;9.148;2022-07-29T08:33:41;22.60;99.90
4828;DHT22;2428;48.732;9.148;2022-07-29T08:36:07;22.70;99.90
4828;DHT22;2428;48.732;9.148;2022-07-29T08:38:32;22.80;99.90
4828;DHT22;2428;48.732;9.148;2022-07-29T08:41:00;22.90;99.90
4828;DHT22;2428;48.732;9.148;2022-07-29T08:43:27;23.00;99.90
4828;DHT22;2428;48.732;9.148;2022-07-29T08:45:53;23.10;99.90
4828;DHT22;2428;48.732;9.148;2022-07-29T08:48:21;23.10;99.90
4828;DHT22;2428;48.732;9.148;2022-07-29T08:50:50;23.10;99.90
4828;DHT22;2428;48.732;9.148;2022-07-29T08:53:18;23.20;99.90
4828;DHT22;2428;48.732;9.148;2022-07-29T08:55:46;23.20;99.90
4828;DHT22;2428;48.732;9.148;2022-07-29T08:58:13;23.20;99.90
4828;DHT22;2428;48.732;9.148;2022-07-29T09:01:02;23.30;99.90
4828;DHT22;2428;48.732;9.148;2022-07-29T09:03:32;23.30;99.90
4828;DHT22;2428;48.732;9.148;2022-07-29T09:05:59;23.40;99.90
4828;DHT22;2428;48.732;9.148;2022-07-29T09:08:25;23.40;99.90
4828;DHT22;2428;48.732;9.148;2022-07-29T09:10:51;23.50;99.90
4828;DHT22;2428;48.732;9.148;2022-07-29T09:13:17;23.60;99.90
4828;DHT22;2428;48.732;9.148;2022-07-29T09:15:43;23.70;99.90
4828;DHT22;2428;48.732;9.148;2022-07-29T09:18:09;23.80;99.90
4828;DHT22;2428;48.732;9.148;2022-07-29T09:20:35;23.90;99.90
4828;DHT22;2428;48.732;9.148;2022-07-29T09:23:19;24.00;99.90
4828;DHT22;2428;48.732;9.148;2022-07-29T09:25:44;24.20;99.90
4828;DHT22;2428;48.732;9.148;2022-07-29T09:28:16;24.30;99.90
4828;DHT22;2428;48.732;9.148;2022-07-29T09:30:58;24.40;99.90
4828;DHT22;2428;48.732;9.148;2022-07-29T09:33:31;24.50;99.90
4828;DHT22;2428;48.732;9.148;2022-07-29T09:36:04;24.60;99.90
4828;DHT22;2428;48.732;9.148;2022-07-29T09:38:30;24.60;99.90
4828;DHT22;2428;48.732;9.148;2022-07-29T09:40:58;24.70;99.90
4828;DHT22;2428;48.732;9.148;2022-07-29T09:43:24;24.80;99.90
4828;DHT22;2428;48.732;9.148;2022-07-29T09:45:49;24.90;99.90
4828;DHT22;2428;48.732;9.148;2022-07-29T09:48:17;24.90;99.90
4828;DHT22;2428;48.732;9.148;2022-07-29T09:50:45;25.00;99.90
4828;DHT22;2428;48.732;9.148;2022-07-29T09:53:15;25.10;99.90
4828;DHT22;2428;48.732;9.148;2022-07-29T09:55:54;25.20;99.90
4828;DHT22;2428;48.732;9.148;2022-07-29T09:58:21;25.40;99.90
4828;DHT22;2428;48.732;9.148;2022-07-29T10:00:49;25.50;99.90
4828;DHT22;2428;48.732;9.148;2022-07-29T10:03:15;25.40;99.90
4828;DHT22;2428;48.732;9.148;2022-07-29T10:05:42;25.40;99.90
4828;DHT22;2428;48.732;9.148;2022-07-29T10:08:08;25.40;99.90
4828;DHT22;2428;48.732;9.148;2022-07-29T10:10:37;25.60;99.90
4828;DHT22;2428;48.732;9.148;2022-07-29T10:13:10;25.80;99.90
4828;DHT22;2428;48.732;9.148;2022-07-29T10:15:38;26.00;99.90
4828;DHT22;2428;48.732;9.148;2022-07-29T10:18:07;26.30;99.90
4828;DHT22;2428;48.732;9.148;2022-07-29T10:20:33;26.40;99.90
4828;DHT22;2428;48.732;9.148;2022-07-29T10:22:59;26.50;99.90
4828;DHT22;2428;48.732;9.148;2022-07-29T10:25:25;26.30;99.90
4828;DHT22;2428;48.732;9.148;2022-07-29T10:27:51;26.10;99.90
4828;DHT22;2428;48.732;9.148;2022-07-29T10:30:17;26.00;99.90
4828;DHT22;2428;48.732;9.148;2022-07-29T10:36:04;25.60;99.90
4828;DHT22;2428;48.732;9.148;2022-07-29T10:41:24;25.20;99.90
4828;DHT22;2428;48.732;9.148;2022-07-29T10:44:01;25.10;99.90
4828;DHT22;2428;48.732;9.148;2022-07-29T10:46:27;24.90;99.90
4828;DHT22;2428;48.732;9.148;2022-07-29T10:52:01;24.60;99.90
4828;DHT22;2428;48.732;9.148;2022-07-29T10:59:49;24.20;99.90
4828;DHT22;2428;48.732;9.148;2022-07-29T11:05:02;23.60;99.90
4828;DHT22;2428;48.732;9.148;2022-07-29T11:07:29;23.20;99.90
4828;DHT22;2428;48.732;9.148;2022-07-29T11:15:15;21.90;99.90
4828;DHT22;2428;48.732;9.148;2022-07-29T11:23:23;21.00;99.90
4828;DHT22;2428;48.732;9.148;2022-07-29T11:31:31;20.40;99.90
4828;DHT22;2428;48.732;9.148;2022-07-29T11:39:44;20.40;99.90
4828;DHT22;2428;48.732;9.148;2022-07-29T11:47:30;20.40;99.90
4828;DHT22;2428;48.732;9.148;2022-07-29T11:49:57;20.30;99.90
4828;DHT22;2428;48.732;9.148;2022-07-29T11:52:23;20.20;99.90
4828;DHT22;2428;48.732;9.148;2022-07-29T11:54:57;20.20;99.90
4828;DHT22;2428;48.732;9.148;2022-07-29T11:57:25;20.00;99.90
4828;DHT22;2428;48.732;9.148;2022-07-29T11:59:51;19.80;99.90
4828;DHT22;2428;48.732;9.148;2022-07-29T12:02:17;19.50;99.90
4828;DHT22;2428;48.732;9.148;2022-07-29T12:04:52;19.40;99.90
4828;DHT22;2428;48.732;9.148;2022-07-29T12:07:33;19.40;99.90
4828;DHT22;2428;48.732;9.148;2022-07-29T12:09:59;19.40;99.90
4828;DHT22;2428;48.732;9.148;2022-07-29T12:12:25;19.40;99.90
4828;DHT22;2428;48.732;9.148;2022-07-29T12:14:51;19.30;99.90
4828;DHT22;2428;48.732;9.148;2022-07-29T12:19:52;19.40;99.90
4828;DHT22;2428;48.732;9.148;2022-07-29T12:22:29;19.50;99.90
4828;DHT22;2428;48.732;9.148;2022-07-29T12:24:55;19.60;99.90
4828;DHT22;2428;48.732;9.148;2022-07-29T12:27:25;19.60;99.90
4828;DHT22;2428;48.732;9.148;2022-07-29T12:29:59;19.70;99.90
4828;DHT22;2428;48.732;9.148;2022-07-29T12:32:41;19.80;99.90
4828;DHT22;2428;48.732;9.148;2022-07-29T12:35:10;19.90;99.90
4828;DHT22;2428;48.732;9.148;2022-07-29T12:37:38;19.90;99.90
4828;DHT22;2428;48.732;9.148;2022-07-29T12:40:05;19.90;99.90
4828;DHT22;2428;48.732;9.148;2022-07-29T12:42:31;19.70;99.90
4828;DHT22;2428;48.732;9.148;2022-07-29T12:44:57;19.70;99.90
4828;DHT22;2428;48.732;9.148;2022-07-29T12:47:23;19.60;99.90
4828;DHT22;2428;48.732;9.148;2022-07-29T12:49:49;19.60;99.90
4828;DHT22;2428;48.732;9.148;2022-07-29T12:54:51;19.70;99.90
4828;DHT22;2428;48.732;9.148;2022-07-29T12:57:16;19.80;99.90
4828;DHT22;2428;48.732;9.148;2022-07-29T12:59:42;19.80;99.90
4828;DHT22;2428;48.732;9.148;2022-07-29T13:02:20;19.90;99.90
4828;DHT22;2428;48.732;9.148;2022-07-29T13:04:55;20.00;99.90
4828;DHT22;2428;48.732;9.148;2022-07-29T13:07:30;20.10;99.90
4828;DHT22;2428;48.732;9.148;2022-07-29T13:10:17;20.10;99.90
4828;DHT22;2428;48.732;9.148;2022-07-29T13:13:06;20.10;99.90
4828;DHT22;2428;48.732;9.148;2022-07-29T13:15:33;20.00;99.90
4828;DHT22;2428;48.732;9.148;2022-07-29T13:17:59;20.10;99.90
4828;DHT22;2428;48.732;9.148;2022-07-29T13:20:27;20.10;99.90
4828;DHT22;2428;48.732;9.148;2022-07-29T13:22:55;20.00;99.90
4828;DHT22;2428;48.732;9.148;2022-07-29T13:25:26;20.00;99.90
4828;DHT22;2428;48.732;9.148;2022-07-29T13:27:52;19.90;99.90
4828;DHT22;2428;48.732;9.148;2022-07-29T13:30:20;19.90;99.90
4828;DHT22;2428;48.732;9.148;2022-07-29T13:32:45;19.90;99.90
4828;DHT22;2428;48.732;9.148;2022-07-29T13:35:11;19.90;99.90
4828;DHT22;2428;48.732;9.148;2022-07-29T13:37:38;19.80;99.90
4828;DHT22;2428;48.732;9.148;2022-07-29T13:40:08;19.70;99.90
4828;DHT22;2428;48.732;9.148;2022-07-29T13:42:34;19.70;99.90
4828;DHT22;2428;48.732;9.148;2022-07-29T13:45:00;19.70;99.90
4828;DHT22;2428;48.732;9.148;2022-07-29T13:47:26;19.70;99.90
4828;DHT22;2428;48.732;9.148;2022-07-29T13:49:52;19.70;99.90
4828;DHT22;2428;48.732;9.148;2022-07-29T13:52:18;19.80;99.90
4828;DHT22;2428;48.732;9.148;2022-07-29T13:54:44;19.90;99.90
4828;DHT22;2428;48.732;9.148;2022-07-29T13:57:11;20.10;99.90
4828;DHT22;2428;48.732;9.148;2022-07-29T13:59:37;20.30;99.90
4828;DHT22;2428;48.732;9.148;2022-07-29T14:02:03;20.40;99.90
4828;DHT22;2428;48.732;9.148;2022-07-29T14:04:30;20.60;99.90
4828;DHT22;2428;48.732;9.148;2022-07-29T14:06:55;20.70;99.90
4828;DHT22;2428;48.732;9.148;2022-07-29T14:09:21;20.90;99.90
4828;DHT22;2428;48.732;9.148;2022-07-29T14:11:46;21.00;99.90
4828;DHT22;2428;48.732;9.148;2022-07-29T14:14:15;21.10;99.90
4828;DHT22;2428;48.732;9.148;2022-07-29T14:16:40;21.20;99.90
4828;DHT22;2428;48.732;9.148;2022-07-29T14:19:06;21.30;99.90
4828;DHT22;2428;48.732;9.148;2022-07-29T14:21:32;21.40;99.90
4828;DHT22;2428;48.732;9.148;2022-07-29T14:23:58;21.40;99.90
4828;DHT22;2428;48.732;9.148;2022-07-29T14:26:23;21.50;99.90
4828;DHT22;2428;48.732;9.148;2022-07-29T14:28:49;21.60;99.90
4828;DHT22;2428;48.732;9.148;2022-07-29T14:31:15;21.60;99.90
4828;DHT22;2428;48.732;9.148;2022-07-29T14:33:41;21.60;99.90
4828;DHT22;2428;48.732;9.148;2022-07-29T14:36:07;21.70;99.90
4828;DHT22;2428;48.732;9.148;2022-07-29T14:38:34;21.70;99.90
4828;DHT22;2428;48.732;9.148;2022-07-29T14:41:00;21.70;99.90
4828;DHT22;2428;48.732;9.148;2022-07-29T14:43:26;21.70;99.90
4828;DHT22;2428;48.732;9.148;2022-07-29T14:45:51;21.80;99.90
4828;DHT22;2428;48.732;9.148;2022-07-29T14:48:17;21.80;99.90
4828;DHT22;2428;48.732;9.148;2022-07-29T14:50:42;21.80;99.90
4828;DHT22;2428;48.732;9.148;2022-07-29T14:53:08;21.80;99.90
4828;DHT22;2428;48.732;9.148;2022-07-29T14:55:34;21.90;99.90
4828;DHT22;2428;48.732;9.148;2022-07-29T14:58:00;21.90;99.90
4828;DHT22;2428;48.732;9.148;2022-07-29T15:00:26;21.90;99.90
4828;DHT22;2428;48.732;9.148;2022-07-29T15:02:52;21.90;99.90
4828;DHT22;2428;48.732;9.148;2022-07-29T15:05:17;22.00;99.90
4828;DHT22;2428;48.732;9.148;2022-07-29T15:07:43;22.10;99.90
4828;DHT22;2428;48.732;9.148;2022-07-29T15:10:08;22.10;99.90
4828;DHT22;2428;48.732;9.148;2022-07-29T15:12:34;22.20;99.90
4828;DHT22;2428;48.732;9.148;2022-07-29T15:15:00;22.10;99.90
4828;DHT22;2428;48.732;9.148;2022-07-29T15:17:26;22.10;99.90
4828;DHT22;2428;48.732;9.148;2022-07-29T15:19:51;22.10;99.90
4828;DHT22;2428;48.732;9.148;2022-07-29T15:22:18;22.10;99.90
4828;DHT22;2428;48.732;9.148;2022-07-29T15:24:44;22.10;99.90
4828;DHT22;2428;48.732;9.148;2022-07-29T15:27:09;22.00;99.90
4828;DHT22;2428;48.732;9.148;2022-07-29T15:29:40;22.00;99.90
4828;DHT22;2428;48.732;9.148;2022-07-29T15:32:06;22.00;99.90
4828;DHT22;2428;48.732;9.148;2022-07-29T15:34:32;21.90;99.90
4828;DHT22;2428;48.732;9.148;2022-07-29T15:36:57;22.00;99.90
4828;DHT22;2428;48.732;9.148;2022-07-29T15:39:23;22.00;99.90
4828;DHT22;2428;48.732;9.148;2022-07-29T15:41:49;22.00;99.90
4828;DHT22;2428;48.732;9.148;2022-07-29T15:44:15;21.90;99.90
4828;DHT22;2428;48.732;9.148;2022-07-29T15:46:40;22.00;99.90
4828;DHT22;2428;48.732;9.148;2022-07-29T15:49:25;22.00;99.90
4828;DHT22;2428;48.732;9.148;2022-07-29T15:51:59;22.00;99.90
4828;DHT22;2428;48.732;9.148;2022-07-29T15:54:26;21.90;99.90
4828;DHT22;2428;48.732;9.148;2022-07-29T15:56:53;21.90;99.90
4828;DHT22;2428;48.732;9.148;2022-07-29T15:59:19;21.90;99.90
4828;DHT22;2428;48.732;9.148;2022-07-29T16:01:45;22.00;99.90
4828;DHT22;2428;48.732;9.148;2022-07-29T16:04:10;22.00;99.90
4828;DHT22;2428;48.732;9.148;2022-07-29T16:06:36;22.00;99.90
4828;DHT22;2428;48.732;9.148;2022-07-29T16:09:02;22.00;99.90
4828;DHT22;2428;48.732;9.148;2022-07-29T16:11:28;22.00;99.90
4828;DHT22;2428;48.732;9.148;2022-07-29T16:13:53;21.90;99.90
4828;DHT22;2428;48.732;9.148;2022-07-29T16:16:19;21.80;99.90
4828;DHT22;2428;48.732;9.148;2022-07-29T16:18:45;21.80;99.90
4828;DHT22;2428;48.732;9.148;2022-07-29T16:21:12;21.70;99.90
4828;DHT22;2428;48.732;9.148;2022-07-29T16:23:38;21.70;99.90
4828;DHT22;2428;48.732;9.148;2022-07-29T16:26:04;21.70;99.90
4828;DHT22;2428;48.732;9.148;2022-07-29T16:28:29;21.70;99.90
4828;DHT22;2428;48.732;9.148;2022-07-29T16:30:55;21.70;99.90
4828;DHT22;2428;48.732;9.148;2022-07-29T16:33:22;21.70;99.90
4828;DHT22;2428;48.732;9.148;2022-07-29T16:35:51;21.70;99.90
4828;DHT22;2428;48.732;9.148;2022-07-29T16:38:17;21.70;99.90
4828;DHT22;2428;48.732;9.148;2022-07-29T16:40:43;21.70;99.90
4828;DHT22;2428;48.732;9.148;2022-07-29T16:43:08;21.80;99.90
4828;DHT22;2428;48.732;9.148;2022-07-29T16:45:35;21.80;99.90
4828;DHT22;2428;48.732;9.148;2022-07-29T16:48:01;21.80;99.90
4828;DHT22;2428;48.732;9.148;2022-07-29T16:50:28;21.80;99.90
4828;DHT22;2428;48.732;9.148;2022-07-29T16:52:54;21.80;99.90
4828;DHT22;2428;48.732;9.148;2022-07-29T16:55:20;21.80;99.90
4828;DHT22;2428;48.732;9.148;2022-07-29T16:57:46;21.70;99.90
4828;DHT22;2428;48.732;9.148;2022-07-29T17:00:12;21.70;99.90
4828;DHT22;2428;48.732;9.148;2022-07-29T17:02:39;21.70;99.90
4828;DHT22;2428;48.732;9.148;2022-07-29T17:05:06;21.70;99.90